createdAt,value
2022-11-14T00:00:03.176Z,41.7
2022-11-14T00:02:04.752Z,43.7
2022-11-14T00:04:06.378Z,44.9
2022-11-14T00:06:07.996Z,41.1
2022-11-14T00:08:12.874Z,54.1
2022-11-14T00:10:14.507Z,44.9
2022-11-14T00:12:16.107Z,53.4
2022-11-14T00:14:17.763Z,45.7
2022-11-14T00:16:19.356Z,52.9
2022-11-14T00:18:20.995Z,43.2
2022-11-14T00:20:22.608Z,52.1
2022-11-14T00:22:27.488Z,56.8
2022-11-14T00:24:29.109Z,48.1
2022-11-14T00:26:30.730Z,44.2
2022-11-14T00:28:59.381Z,60.9
2022-11-14T00:31:01.014Z,62.1
2022-11-14T00:33:02.628Z,53.4
2022-11-14T00:35:07.480Z,78.7
2022-11-14T00:37:09.301Z,70.5
2022-11-14T00:39:10.740Z,59.7
2022-11-14T00:41:12.372Z,63.3
2022-11-14T00:43:13.991Z,63.3
2022-11-14T00:45:15.623Z,62.6
2022-11-14T00:47:17.238Z,58.2
2022-11-14T00:49:22.118Z,51.8
2022-11-14T00:51:23.739Z,66
2022-11-14T00:53:25.353Z,53.8
2022-11-14T00:55:26.973Z,58.6
2022-11-14T00:57:28.586Z,53.2
2022-11-14T00:59:30.205Z,57.9
2022-11-14T01:03:36.670Z,54.5
2022-11-14T01:05:38.281Z,49.9
2022-11-14T01:09:41.522Z,61.8
2022-11-14T01:11:43.133Z,64
2022-11-14T01:15:46.361Z,57.3
2022-11-14T01:17:51.212Z,60.8
2022-11-14T01:19:52.854Z,51.1
2022-11-14T01:21:54.456Z,48
2022-11-14T01:22:56.872Z,57.6
2022-11-14T01:24:58.500Z,58.7
2022-11-14T01:27:00.126Z,51.3
2022-11-14T01:29:01.724Z,48.5
2022-11-14T01:31:06.579Z,42.3
2022-11-14T01:33:08.196Z,51.5
2022-11-14T01:35:09.810Z,45.1
2022-11-14T01:37:11.415Z,51
2022-11-14T01:39:13.040Z,50.3
2022-11-14T01:41:14.642Z,48.8
2022-11-14T01:43:16.252Z,56.9
2022-11-14T01:45:21.117Z,66.6
2022-11-14T01:47:22.720Z,65
2022-11-14T01:51:25.938Z,52.6
2022-11-14T01:53:27.525Z,69.9
2022-11-14T01:55:29.141Z,71.2
2022-11-14T01:57:30.739Z,78.4
2022-11-14T01:59:35.570Z,72.2
2022-11-14T02:01:37.239Z,64.2
2022-11-14T02:03:38.759Z,70.9
2022-11-14T02:05:40.379Z,73
2022-11-14T02:07:41.982Z,68.1
2022-11-14T02:09:43.607Z,189.8
2022-11-14T02:11:45.168Z,70.7
2022-11-14T02:13:50.018Z,82.2
2022-11-14T02:15:51.628Z,121.6
2022-11-14T02:17:53.226Z,125
2022-11-14T02:18:55.671Z,121.9
2022-11-14T02:20:57.284Z,141.7
2022-11-14T02:22:58.895Z,146.8
2022-11-14T02:25:00.518Z,130.5
2022-11-14T02:27:05.358Z,137.7
2022-11-14T02:29:06.961Z,94.9
2022-11-14T02:31:08.575Z,84.2
2022-11-14T02:33:11.578Z,85.7
2022-11-14T02:35:11.798Z,72.7
2022-11-14T02:37:13.417Z,68
2022-11-14T02:39:15.022Z,74.3
2022-11-14T02:41:19.868Z,71.9
2022-11-14T02:43:21.497Z,65.5
2022-11-14T02:45:23.121Z,59.1
2022-11-14T02:47:24.724Z,69
2022-11-14T02:49:26.347Z,73.1
2022-11-14T02:51:27.984Z,85.2
2022-11-14T02:53:29.582Z,80.7
2022-11-14T02:55:34.732Z,76.7
2022-11-14T02:57:36.341Z,61.3
2022-11-14T02:59:37.949Z,67.8
2022-11-14T03:01:39.645Z,74
2022-11-14T03:03:41.217Z,66.6
2022-11-14T03:05:42.853Z,84.5
2022-11-14T03:07:44.476Z,68.6
2022-11-14T03:09:49.362Z,77.3
2022-11-14T03:11:50.978Z,73.7
2022-11-14T03:16:56.669Z,70.3
2022-11-14T03:18:58.308Z,78.3
2022-11-14T03:20:59.944Z,78.1
2022-11-14T03:25:06.421Z,67.6
2022-11-14T03:33:12.941Z,94.9
2022-11-14T03:37:19.431Z,86.8
2022-11-14T03:39:21.073Z,81.1
2022-11-14T03:41:22.734Z,69.4
2022-11-14T03:43:24.332Z,66
2022-11-14T03:45:25.980Z,77.9
2022-11-14T03:47:27.595Z,62.3
2022-11-14T03:49:29.240Z,60
2022-11-14T03:51:34.109Z,64.4
2022-11-14T03:55:37.372Z,156.6
2022-11-14T03:57:38.995Z,125.8
2022-11-14T03:59:42.185Z,82.3
2022-11-14T04:01:43.747Z,110.3
2022-11-14T04:03:45.372Z,69.3
2022-11-14T04:05:50.247Z,131.7
2022-11-14T04:07:51.886Z,218.2
2022-11-14T04:09:53.494Z,165.5
2022-11-14T04:12:22.148Z,168.7
2022-11-14T04:14:23.789Z,72.9
2022-11-14T04:16:25.408Z,133
2022-11-14T04:18:30.674Z,142.6
2022-11-14T04:20:31.903Z,109.3
2022-11-14T04:22:33.542Z,116.5
2022-11-14T04:24:35.156Z,192.3
2022-11-14T04:26:36.776Z,163.6
2022-11-14T04:30:40.021Z,138.5
2022-11-14T04:32:44.899Z,109.9
2022-11-14T04:34:46.505Z,128.1
2022-11-14T04:36:48.115Z,72.2
2022-11-14T04:38:49.745Z,115.7
2022-11-14T04:40:51.350Z,157.9
2022-11-14T04:42:52.975Z,103.8
2022-11-14T04:44:54.755Z,126.3
2022-11-14T04:46:59.437Z,215.6
2022-11-14T04:49:01.054Z,202.9
2022-11-14T04:51:02.677Z,112.2
2022-11-14T04:59:09.143Z,154.4
2022-11-14T05:01:14.175Z,135.9
2022-11-14T05:05:17.225Z,104.3
2022-11-14T05:06:19.634Z,138.3
2022-11-14T05:08:21.249Z,154.2
2022-11-14T05:10:22.853Z,129
2022-11-14T05:12:24.473Z,126
2022-11-14T05:14:29.325Z,127.6
2022-11-14T05:16:30.926Z,117.8
2022-11-14T05:18:32.940Z,95.7
2022-11-14T05:20:34.135Z,94.7
2022-11-14T05:22:35.754Z,127.4
2022-11-14T05:24:37.378Z,122.2
2022-11-14T05:26:38.995Z,75.3
2022-11-14T05:38:51.840Z,80.2
2022-11-14T05:40:53.449Z,73.2
2022-11-14T05:42:58.327Z,51.5
2022-11-14T05:44:59.891Z,64.8
2022-11-14T05:47:01.500Z,65.7
2022-11-14T05:49:03.099Z,49.2
2022-11-14T05:51:04.693Z,45.8
2022-11-14T05:53:06.271Z,39.3
2022-11-14T05:55:07.884Z,51.8
2022-11-14T05:57:12.720Z,44.4
2022-11-14T06:02:18.363Z,47.3
2022-11-14T06:04:19.919Z,55.2
2022-11-14T06:06:21.492Z,58.4
2022-11-14T06:08:23.092Z,49.9
2022-11-14T06:10:27.929Z,56
2022-11-14T06:12:29.508Z,50.8
2022-11-14T06:14:31.100Z,54.9
2022-11-14T06:16:32.685Z,49
2022-11-14T06:18:34.268Z,55.1
2022-11-14T06:20:35.871Z,46.3
2022-11-14T06:22:37.458Z,77.1
2022-11-14T06:24:42.295Z,113.6
2022-11-14T06:26:43.870Z,62.7
2022-11-14T06:28:45.469Z,94.3
2022-11-14T06:30:47.051Z,57.8
2022-11-14T06:32:48.648Z,59.5
2022-11-14T06:34:50.245Z,49.6
2022-11-14T06:36:51.811Z,71.4
2022-11-14T06:38:56.655Z,65.3
2022-11-14T06:40:58.235Z,53.5
2022-11-14T06:42:59.833Z,60.6
2022-11-14T06:45:01.427Z,66.1
2022-11-14T06:47:03.010Z,60.8
2022-11-14T06:49:04.579Z,52.9
2022-11-14T06:51:06.167Z,58.1
2022-11-14T06:53:10.999Z,51.7
2022-11-14T06:55:12.586Z,63.5
2022-11-14T06:57:14.173Z,46.8
2022-11-14T06:58:16.574Z,44
2022-11-14T07:00:18.147Z,44.3
2022-11-14T07:02:22.070Z,40.4
2022-11-14T07:04:21.318Z,46.7
2022-11-14T07:06:26.133Z,49.3
2022-11-14T07:08:27.737Z,43.4
2022-11-14T07:10:29.431Z,52.2
2022-11-14T07:12:30.894Z,55.8
2022-11-14T07:14:32.455Z,49.8
2022-11-14T07:16:34.152Z,55.5
2022-11-14T07:18:35.597Z,55.1
2022-11-14T07:20:40.417Z,52.8
2022-11-14T07:22:41.988Z,50.3
2022-11-14T07:24:43.553Z,46.4
2022-11-14T07:26:45.134Z,44.8
2022-11-14T07:32:49.844Z,62.6
2022-11-14T07:36:56.228Z,51.2
2022-11-14T07:38:57.779Z,51.1
2022-11-14T07:41:00.144Z,47.6
2022-11-14T07:43:00.925Z,54.1
2022-11-14T07:45:02.506Z,54.6
2022-11-14T07:47:04.062Z,63.3
2022-11-14T07:49:08.852Z,55.3
2022-11-14T07:51:10.426Z,48.2
2022-11-14T07:53:11.998Z,46.6
2022-11-14T07:55:40.604Z,57.6
2022-11-14T07:57:46.443Z,56
2022-11-14T07:59:43.749Z,58.7
2022-11-14T08:03:50.142Z,65.8
2022-11-14T08:07:53.279Z,56.2
2022-11-14T08:11:56.421Z,54.7
2022-11-14T08:13:58.020Z,46
2022-11-14T08:18:04.429Z,43.4
2022-11-14T08:20:06.035Z,45.9
2022-11-14T08:22:07.625Z,42.5
2022-11-14T08:24:09.220Z,41.3
2022-11-14T08:26:10.864Z,34.2
2022-11-14T08:28:12.457Z,40.7
2022-11-14T08:32:18.889Z,31.1
2022-11-14T08:34:20.494Z,31.9
2022-11-14T08:44:31.787Z,47
2022-11-14T08:46:33.400Z,29.4
2022-11-14T08:48:35.012Z,22.9
2022-11-14T08:51:39.073Z,21.8
2022-11-14T08:59:48.812Z,26.3
2022-11-14T09:01:50.470Z,21.2
2022-11-14T09:03:56.890Z,21.4
2022-11-14T09:07:55.435Z,20.9
2022-11-14T09:12:01.963Z,21.6
2022-11-14T09:14:03.648Z,19.6
2022-11-14T09:16:05.287Z,18.7
2022-11-14T09:18:06.973Z,29.7
2022-11-14T09:24:11.985Z,27.3
2022-11-14T09:26:16.887Z,19.5
2022-11-14T09:32:21.931Z,25
2022-11-14T09:38:27.017Z,24.6
2022-11-14T09:40:32.048Z,19.5
2022-11-14T09:42:33.664Z,16.6
2022-11-14T09:44:35.358Z,20.4
2022-11-14T09:45:37.848Z,21.9
2022-11-14T09:47:39.536Z,16.1
2022-11-14T09:49:42.802Z,21.4
2022-11-14T09:51:44.475Z,19.9
2022-11-14T09:53:49.424Z,17.7
2022-11-14T09:55:51.128Z,21
2022-11-14T09:57:52.858Z,18.3
2022-11-14T09:59:54.594Z,16.2
2022-11-14T10:01:56.344Z,17.6
2022-11-14T10:03:58.049Z,17.3
2022-11-14T10:08:04.763Z,23.5
2022-11-14T10:10:06.510Z,18.7
2022-11-14T10:12:08.237Z,22
2022-11-14T10:14:10.044Z,22.6
2022-11-14T10:16:11.736Z,16.9
2022-11-14T10:18:13.458Z,20
2022-11-14T10:20:15.232Z,18.2
2022-11-14T10:22:20.169Z,18.5
2022-11-14T10:24:21.915Z,20.8
2022-11-14T10:26:23.657Z,15.7
2022-11-14T10:28:25.409Z,16.6
2022-11-14T10:30:27.183Z,18
2022-11-14T10:32:28.924Z,19.8
2022-11-14T10:34:30.754Z,20.4
2022-11-14T10:38:37.498Z,16.1
2022-11-14T10:40:39.244Z,17.6
2022-11-14T10:41:57.061Z,17.8
2022-11-14T10:43:43.517Z,14.7
2022-11-14T10:45:45.263Z,13.8
2022-11-14T10:47:47.026Z,14.5
2022-11-14T10:57:59.118Z,20.6
2022-11-14T11:00:00.886Z,14.1
2022-11-14T11:02:02.697Z,14
2022-11-14T11:04:07.724Z,14.2
2022-11-14T11:06:09.491Z,15.5
2022-11-14T11:08:42.139Z,17.5
2022-11-14T11:10:13.047Z,16.6
2022-11-14T11:12:14.912Z,15
2022-11-14T11:14:16.618Z,13.3
2022-11-14T11:16:18.400Z,17.8
2022-11-14T11:22:27.024Z,15.4
2022-11-14T11:24:28.804Z,11.8
2022-11-14T11:26:30.584Z,12.5
2022-11-14T11:28:32.782Z,16
2022-11-14T11:30:34.162Z,12.3
2022-11-14T11:34:40.957Z,18.5
2022-11-14T11:36:42.763Z,15.4
2022-11-14T11:39:11.428Z,13.2
2022-11-14T11:45:20.036Z,13.4
2022-11-14T11:53:27.279Z,26.2
2022-11-14T12:01:37.557Z,13.5
2022-11-14T12:03:40.061Z,12.7
2022-11-14T12:05:41.144Z,15.9
2022-11-14T12:07:42.932Z,13.7
2022-11-14T12:19:56.853Z,13.8
2022-11-14T12:21:59.165Z,17.5
2022-11-14T12:24:00.394Z,14.3
2022-11-14T12:26:02.197Z,21.7
2022-11-14T12:28:07.263Z,18
2022-11-14T12:30:08.955Z,20.5
2022-11-14T12:32:10.707Z,21.3
2022-11-14T12:39:18.507Z,17
2022-11-14T12:43:25.275Z,18.1
2022-11-14T12:45:27.059Z,17.5
2022-11-14T12:47:28.805Z,19.6
2022-11-14T12:49:35.233Z,18
2022-11-14T12:51:32.421Z,19
2022-11-14T12:53:34.096Z,15.6
2022-11-14T12:55:39.091Z,19.4
2022-11-14T12:57:40.974Z,17.5
2022-11-14T12:59:42.607Z,17.2
2022-11-14T13:01:44.404Z,13.4
2022-11-14T13:03:46.117Z,14.2
2022-11-14T13:05:47.864Z,19.8
2022-11-14T13:07:49.640Z,18.4
2022-11-14T13:09:54.624Z,16
2022-11-14T13:11:56.376Z,16
2022-11-14T13:13:58.122Z,17.2
2022-11-14T13:15:59.889Z,16.8
2022-11-14T13:18:01.681Z,15.1
2022-11-14T13:20:03.404Z,21.2
2022-11-14T13:22:05.149Z,16.9
2022-11-14T13:24:10.142Z,13.9
2022-11-14T13:26:11.894Z,19.9
2022-11-14T13:28:24.235Z,19.8
2022-11-14T13:29:16.147Z,19.7
2022-11-14T13:31:17.893Z,15
2022-11-14T13:37:26.399Z,17.4
2022-11-14T13:39:28.166Z,13.9
2022-11-14T13:41:46.190Z,17.4
2022-11-14T13:45:33.421Z,15.7
2022-11-14T13:47:35.184Z,19
2022-11-14T13:49:36.911Z,19.6
2022-11-14T13:51:43.713Z,18.6
2022-11-14T13:53:43.659Z,13.1
2022-11-14T13:55:45.425Z,20.4
2022-11-14T13:57:47.189Z,12.7
2022-11-14T13:59:48.942Z,15.9
2022-11-14T14:01:50.659Z,14.9
2022-11-14T14:03:52.414Z,17.4
2022-11-14T14:06:01.139Z,16.6
2022-11-14T14:07:59.127Z,13.9
2022-11-14T14:10:00.892Z,12.6
2022-11-14T14:12:02.617Z,14.5
2022-11-14T14:14:04.381Z,14.8
2022-11-14T14:16:06.120Z,12.4
2022-11-14T14:18:07.855Z,12.8
2022-11-14T14:20:12.847Z,9.4
2022-11-14T14:22:14.595Z,12.3
2022-11-14T14:24:16.346Z,10.2
2022-11-14T14:25:18.804Z,10.7
2022-11-14T14:27:20.579Z,13.8
2022-11-14T14:29:22.308Z,11
2022-11-14T14:31:24.044Z,9.2
2022-11-14T14:33:29.049Z,11.9
2022-11-14T14:35:32.586Z,12.4
2022-11-14T14:37:32.534Z,13.2
2022-11-14T14:39:34.246Z,13.3
2022-11-14T14:41:35.995Z,15
2022-11-14T14:43:37.738Z,12.2
2022-11-14T14:45:39.479Z,15.3
2022-11-14T14:47:44.454Z,15.9
2022-11-14T14:49:46.194Z,14.2
2022-11-14T14:51:47.932Z,17.2
2022-11-14T14:53:49.663Z,13.2
2022-11-14T14:55:51.385Z,16.5
2022-11-14T14:57:53.133Z,12.9
2022-11-14T14:59:54.862Z,17.7
2022-11-14T15:01:59.861Z,13.1
2022-11-14T15:06:03.330Z,13.9
2022-11-14T15:08:05.085Z,12.2
2022-11-14T15:10:06.828Z,12.3
2022-11-14T15:12:08.558Z,13.3
2022-11-14T15:14:10.294Z,15.8
2022-11-14T15:16:15.274Z,20.4
2022-11-14T15:18:17.009Z,13.6
2022-11-14T15:20:18.750Z,14.7
2022-11-14T15:22:47.342Z,13.3
2022-11-14T15:24:49.111Z,14
2022-11-14T15:28:55.799Z,13
2022-11-14T15:30:57.552Z,14.9
2022-11-14T15:32:59.283Z,13.7
2022-11-14T15:35:01.011Z,18
2022-11-14T15:37:02.757Z,15.6
2022-11-14T15:39:04.476Z,15.2
2022-11-14T15:41:07.915Z,15.9
2022-11-14T15:43:12.679Z,13.9
2022-11-14T15:45:14.432Z,22.4
2022-11-14T15:47:16.168Z,15.7
2022-11-14T15:49:17.910Z,16.4
2022-11-14T15:55:23.118Z,13.3
2022-11-14T15:57:28.114Z,15.7
2022-11-14T15:59:29.831Z,16.8
2022-11-14T16:01:31.753Z,17
2022-11-14T16:03:33.483Z,13.1
2022-11-14T16:05:35.062Z,12.1
2022-11-14T16:07:36.903Z,9.7
2022-11-14T16:09:38.552Z,21.7
2022-11-14T16:11:43.650Z,15.5
2022-11-14T16:13:45.251Z,13.1
2022-11-14T16:15:47.014Z,14
2022-11-14T16:16:49.515Z,15
2022-11-14T16:18:51.248Z,16.1
2022-11-14T16:20:52.979Z,15
2022-11-14T16:22:54.744Z,13.8
2022-11-14T16:24:59.746Z,12.7
2022-11-14T16:27:01.539Z,15
2022-11-14T16:31:05.030Z,15.5
2022-11-14T16:33:06.760Z,16.2
2022-11-14T16:35:08.505Z,18.6
2022-11-14T16:37:10.276Z,10.6
2022-11-14T16:39:15.236Z,17.6
2022-11-14T16:41:16.989Z,13.8
2022-11-14T16:43:18.748Z,16
2022-11-14T16:45:20.614Z,18.7
2022-11-14T16:47:22.223Z,16.4
2022-11-14T16:49:23.985Z,15.8
2022-11-14T16:51:46.071Z,16.2
2022-11-14T16:53:30.923Z,15.8
2022-11-14T16:55:32.391Z,13.8
2022-11-14T16:57:34.119Z,19.6
2022-11-14T16:59:35.896Z,16.9
2022-11-14T17:01:37.699Z,15.4
2022-11-14T17:03:39.399Z,15.7
2022-11-14T17:07:46.120Z,14.4
2022-11-14T17:09:47.872Z,13.5
2022-11-14T17:11:49.628Z,21.3
2022-11-14T17:12:52.115Z,16
2022-11-14T17:14:53.933Z,17.9
2022-11-14T17:16:55.630Z,20.3
2022-11-14T17:18:57.383Z,11.8
2022-11-14T17:21:02.345Z,13.4
2022-11-14T17:23:04.122Z,10.5
2022-11-14T17:25:05.860Z,17.3
2022-11-14T17:27:07.654Z,13.5
2022-11-14T17:29:09.399Z,10.9
2022-11-14T17:33:12.897Z,14.7
2022-11-14T17:35:17.919Z,14.9
2022-11-14T17:37:19.645Z,15.3
2022-11-14T17:39:21.405Z,12.1
2022-11-14T17:41:23.143Z,12
2022-11-14T17:43:24.878Z,11.7
2022-11-14T17:45:26.633Z,17.1
2022-11-14T17:47:28.393Z,12.7
2022-11-14T17:49:33.358Z,24.6
2022-11-14T17:51:35.120Z,16.6
2022-11-14T17:53:36.853Z,16.2
2022-11-14T17:55:38.610Z,12.7
2022-11-14T17:57:40.352Z,16.9
2022-11-14T17:59:42.102Z,13.6
2022-11-14T18:01:43.951Z,17.9
2022-11-14T18:05:50.593Z,14.7
2022-11-14T18:07:52.338Z,16.4
2022-11-14T18:08:54.817Z,18.4
2022-11-14T18:17:12.955Z,15.2
2022-11-14T18:23:10.270Z,17.2
2022-11-14T18:25:12.000Z,17.5
2022-11-14T18:27:13.736Z,17.2
2022-11-14T18:29:15.506Z,12.2
2022-11-14T18:35:23.972Z,15.3
2022-11-14T18:37:25.699Z,14.9
2022-11-14T18:39:27.472Z,16.1
2022-11-14T18:41:29.195Z,21.3
2022-11-14T18:43:31.213Z,14.7
2022-11-14T18:45:35.931Z,15.5
2022-11-14T18:47:37.663Z,18.2
2022-11-14T18:53:42.918Z,23.9
2022-11-14T18:55:44.662Z,18.4
2022-11-14T18:57:46.405Z,23.8
2022-11-14T18:59:51.433Z,20.7
2022-11-14T19:01:53.265Z,19.3
2022-11-14T19:03:54.929Z,21.6
2022-11-14T19:14:33.800Z,16.7
2022-11-14T19:16:35.537Z,21.2
2022-11-14T19:18:37.297Z,20.3
2022-11-14T19:20:39.070Z,20
2022-11-14T19:22:40.782Z,25.3
2022-11-14T19:24:42.522Z,20.6
2022-11-14T19:30:51.023Z,18.3
2022-11-14T19:32:52.771Z,19.6
2022-11-14T19:34:54.516Z,14.5
2022-11-14T19:37:00.948Z,18.8
2022-11-14T19:41:04.831Z,18.3
2022-11-14T19:43:04.692Z,17.8
2022-11-14T19:45:06.436Z,19.3
2022-11-14T19:47:08.153Z,22
2022-11-14T19:49:09.911Z,20.2
2022-11-14T19:51:11.651Z,21.6
2022-11-14T19:53:13.378Z,20
2022-11-14T19:55:18.338Z,29
2022-11-14T19:57:20.079Z,23.6
2022-11-14T19:59:24.402Z,19.2
2022-11-14T20:00:24.298Z,24.5
2022-11-14T20:02:26.037Z,20
2022-11-14T20:04:27.766Z,21.9
2022-11-14T20:06:29.495Z,22.8
2022-11-14T20:08:34.442Z,21.3
2022-11-14T20:10:36.188Z,28.2
2022-11-14T20:14:39.645Z,19.5
2022-11-14T20:16:41.372Z,24.3
2022-11-14T20:18:43.115Z,24.4
2022-11-14T20:20:44.832Z,30.1
2022-11-14T20:22:49.768Z,24.4
2022-11-14T20:24:51.498Z,27.5
2022-11-14T20:26:53.221Z,24.3
2022-11-14T20:28:54.969Z,24.9
2022-11-14T20:32:58.373Z,28.4
2022-11-14T20:37:11.019Z,26.9
2022-11-14T20:39:06.733Z,28.8
2022-11-14T20:41:08.441Z,25.1
2022-11-14T20:45:11.855Z,31.9
2022-11-14T20:47:13.559Z,27.8
2022-11-14T20:49:15.263Z,34.9
2022-11-14T20:53:21.916Z,30
2022-11-14T20:55:23.611Z,29.5
2022-11-14T20:56:26.070Z,26.7
2022-11-14T21:00:29.475Z,36.4
2022-11-14T21:04:36.096Z,28.2
2022-11-14T21:06:37.792Z,31.1
2022-11-14T21:10:41.184Z,28.6
2022-11-14T21:12:48.410Z,26.6
2022-11-14T21:14:44.578Z,23.7
2022-11-14T21:16:46.247Z,21.8
2022-11-14T21:18:51.177Z,33.5
2022-11-14T21:20:52.866Z,23.7
2022-11-14T21:22:54.568Z,25.9
2022-11-14T21:24:56.239Z,31.5
2022-11-14T21:26:57.932Z,32.9
2022-11-14T21:28:59.622Z,24.5
2022-11-14T21:33:07.748Z,24.8
2022-11-14T21:35:09.792Z,26.5
2022-11-14T21:39:12.824Z,26
2022-11-14T21:41:14.520Z,29.5
2022-11-14T21:43:16.179Z,34.2
2022-11-14T21:45:17.865Z,22.5
2022-11-14T21:47:22.780Z,22.9
2022-11-14T21:49:24.445Z,25.2
2022-11-14T21:51:26.140Z,37.3
2022-11-14T21:52:28.579Z,26.2
2022-11-14T21:54:30.285Z,28.1
2022-11-14T21:56:31.966Z,24.6
2022-11-14T21:58:33.653Z,25.2
2022-11-14T22:00:38.563Z,28.9
2022-11-14T22:02:40.242Z,30.2
2022-11-14T22:04:41.919Z,27
2022-11-14T22:06:43.596Z,26.7
2022-11-14T22:08:45.284Z,37.1
2022-11-14T22:10:46.983Z,23.1
2022-11-14T22:12:48.654Z,23.4
2022-11-14T22:14:53.605Z,24.6
2022-11-14T22:16:55.271Z,19.9
2022-11-14T22:19:01.957Z,27.5
2022-11-14T22:20:58.650Z,22.3
2022-11-14T22:23:00.339Z,25.9
2022-11-14T22:25:02.047Z,25.5
2022-11-14T22:27:03.742Z,26.1
2022-11-14T22:29:08.658Z,20.5
2022-11-14T22:31:10.364Z,20.3
2022-11-14T22:33:12.056Z,17.5
2022-11-14T22:35:13.730Z,20.4
2022-11-14T22:37:15.439Z,24.2
2022-11-14T22:39:17.140Z,25.4
2022-11-14T22:41:18.811Z,18.5
2022-11-14T22:43:23.741Z,24.2
2022-11-14T22:45:25.498Z,23.1
2022-11-14T22:47:27.150Z,22.1
2022-11-14T22:49:55.763Z,29.1
2022-11-14T22:51:57.480Z,23.6
2022-11-14T22:53:59.182Z,20.2
2022-11-14T22:56:04.115Z,21.1
2022-11-14T22:58:05.798Z,19.8
2022-11-14T23:00:07.595Z,17.3
2022-11-14T23:02:09.209Z,20.6
2022-11-14T23:04:10.976Z,19.8
2022-11-14T23:06:12.635Z,18.2
2022-11-14T23:08:14.404Z,25.8
2022-11-14T23:10:19.265Z,17.2
2022-11-14T23:12:20.956Z,27.3
2022-11-14T23:14:22.672Z,20.7
2022-11-14T23:16:24.382Z,17.3
2022-11-14T23:20:27.810Z,21.2
2022-11-14T23:24:34.481Z,19
2022-11-14T23:26:36.181Z,27
2022-11-14T23:34:43.066Z,21.7
2022-11-14T23:40:51.430Z,21.1
2022-11-14T23:42:53.151Z,20.1
2022-11-14T23:43:55.615Z,25
2022-11-14T23:45:57.332Z,19.4
2022-11-14T23:47:59.059Z,26.3
2022-11-14T23:50:00.759Z,21.9
2022-11-14T23:52:05.720Z,28.6
2022-11-14T23:54:07.452Z,22
2022-11-14T23:56:09.169Z,22.9
2022-11-14T23:58:10.869Z,27.9
